createdAt,value
2023-02-27T00:01:11.330Z,85.80
2023-02-27T00:03:44.815Z,85.70
2023-02-27T00:06:13.126Z,85.90
2023-02-27T00:08:41.494Z,85.70
2023-02-27T00:11:09.860Z,85.60
2023-02-27T00:13:38.179Z,85.90
2023-02-27T00:16:07.739Z,86.50
2023-02-27T00:18:37.482Z,85.90
2023-02-27T00:21:06.419Z,85.90
2023-02-27T00:23:35.257Z,86.00
2023-02-27T00:26:04.050Z,85.80
2023-02-27T00:28:32.466Z,85.90
2023-02-27T00:31:00.899Z,85.70
2023-02-27T00:33:29.322Z,85.70
2023-02-27T00:36:01.053Z,85.80
2023-02-27T00:38:29.432Z,85.50
2023-02-27T00:40:57.740Z,86.00
2023-02-27T00:43:26.634Z,85.70
2023-02-27T00:45:54.982Z,85.50
2023-02-27T00:48:23.364Z,86.00
2023-02-27T00:50:51.778Z,85.90
2023-02-27T00:53:21.423Z,85.60
2023-02-27T00:55:49.812Z,85.90
2023-02-27T00:58:18.198Z,85.90
2023-02-27T01:00:46.644Z,86.00
2023-02-27T01:03:15.024Z,85.90
2023-02-27T01:05:43.376Z,85.40
2023-02-27T01:08:11.700Z,85.40
2023-02-27T01:10:41.378Z,85.40
2023-02-27T01:13:11.223Z,85.70
2023-02-27T01:15:39.736Z,86.10
2023-02-27T01:18:10.284Z,85.90
2023-02-27T01:20:38.616Z,86.10
2023-02-27T01:23:10.033Z,85.70
2023-02-27T01:25:38.382Z,85.80
2023-02-27T01:28:08.137Z,85.90
2023-02-27T01:30:36.532Z,85.90
2023-02-27T01:33:05.007Z,86.30
2023-02-27T01:35:33.405Z,86.40
2023-02-27T01:38:01.829Z,86.20
2023-02-27T01:40:30.397Z,85.90
2023-02-27T01:42:58.759Z,86.00
2023-02-27T01:45:33.742Z,86.00
2023-02-27T01:48:05.215Z,85.90
2023-02-27T01:50:33.643Z,86.00
2023-02-27T01:53:02.622Z,86.00
2023-02-27T01:55:33.161Z,85.60
2023-02-27T01:58:01.567Z,86.00
2023-02-27T02:00:31.220Z,85.60
2023-02-27T02:03:04.901Z,86.00
2023-02-27T02:05:33.246Z,86.00
2023-02-27T02:08:01.610Z,85.80
2023-02-27T02:10:29.955Z,86.10
2023-02-27T02:12:58.263Z,86.10
2023-02-27T02:15:32.466Z,86.20
2023-02-27T02:18:06.200Z,86.30
2023-02-27T02:21:13.278Z,85.90
2023-02-27T02:24:16.904Z,86.40
2023-02-27T02:26:56.353Z,86.50
2023-02-27T02:29:50.818Z,86.70
2023-02-27T02:32:56.665Z,86.60
2023-02-27T02:35:49.729Z,86.60
2023-02-27T02:38:47.482Z,86.80
2023-02-27T02:41:17.867Z,86.90
2023-02-27T02:43:50.179Z,86.60
2023-02-27T02:46:25.174Z,87.00
2023-02-27T02:48:55.007Z,87.00
2023-02-27T02:51:26.385Z,86.90
2023-02-27T02:53:58.423Z,86.80
2023-02-27T02:56:28.937Z,86.60
2023-02-27T02:58:59.679Z,86.80
2023-02-27T03:01:29.501Z,86.70
2023-02-27T03:03:59.724Z,86.90
2023-02-27T03:06:30.783Z,86.80
2023-02-27T03:09:01.206Z,86.60
2023-02-27T03:11:31.856Z,87.00
2023-02-27T03:14:01.153Z,86.40
2023-02-27T03:16:30.958Z,86.60
2023-02-27T03:19:01.287Z,86.60
2023-02-27T03:21:32.994Z,86.80
2023-02-27T03:24:03.741Z,86.90
2023-02-27T03:26:34.385Z,86.60
2023-02-27T03:29:04.848Z,86.90
2023-02-27T03:31:39.452Z,86.90
2023-02-27T03:34:12.686Z,87.10
2023-02-27T03:36:45.193Z,87.20
2023-02-27T03:39:23.538Z,87.00
2023-02-27T03:41:53.073Z,87.10
2023-02-27T03:44:26.110Z,86.80
2023-02-27T03:46:54.424Z,86.90
2023-02-27T03:49:22.815Z,86.90
2023-02-27T03:51:51.174Z,86.80
2023-02-27T03:54:22.574Z,86.50
2023-02-27T03:56:52.245Z,86.60
2023-02-27T03:59:20.558Z,86.90
2023-02-27T04:01:48.881Z,87.00
2023-02-27T04:04:17.751Z,87.10
2023-02-27T04:07:13.055Z,86.80
2023-02-27T04:09:52.577Z,86.90
2023-02-27T04:12:31.868Z,87.00
2023-02-27T04:15:05.291Z,87.00
2023-02-27T04:17:34.120Z,87.10
2023-02-27T04:20:23.740Z,87.40
2023-02-27T04:22:53.302Z,87.40
2023-02-27T04:25:33.660Z,87.10
2023-02-27T04:28:06.456Z,87.20
2023-02-27T04:30:39.298Z,87.40
2023-02-27T04:33:10.195Z,87.00
2023-02-27T04:35:41.860Z,87.40
2023-02-27T04:38:13.461Z,87.10
2023-02-27T04:40:47.781Z,86.80
2023-02-27T04:43:16.137Z,86.90
2023-02-27T04:45:44.763Z,87.40
2023-02-27T04:48:15.911Z,87.40
2023-02-27T04:50:50.086Z,87.00
2023-02-27T04:53:20.843Z,87.10
2023-02-27T04:55:51.749Z,87.40
2023-02-27T04:58:21.035Z,87.90
2023-02-27T05:00:51.507Z,87.10
2023-02-27T05:03:20.891Z,87.30
2023-02-27T05:05:49.224Z,87.40
2023-02-27T05:08:20.006Z,87.50
2023-02-27T05:10:52.035Z,87.10
2023-02-27T05:13:21.060Z,87.20
2023-02-27T05:15:50.540Z,87.50
2023-02-27T05:18:19.830Z,87.30
2023-02-27T05:20:53.877Z,87.50
2023-02-27T05:23:24.738Z,87.10
2023-02-27T05:25:56.873Z,87.30
2023-02-27T05:28:27.373Z,87.50
2023-02-27T05:30:58.004Z,87.40
2023-02-27T05:33:27.869Z,87.20
2023-02-27T05:35:58.495Z,87.10
2023-02-27T05:38:28.310Z,87.40
2023-02-27T05:41:00.119Z,87.10
2023-02-27T05:43:29.611Z,87.20
2023-02-27T05:46:00.009Z,88.30
2023-02-27T05:48:30.638Z,87.70
2023-02-27T05:50:59.138Z,87.40
2023-02-27T05:53:30.362Z,87.50
2023-02-27T05:56:00.700Z,87.60
2023-02-27T05:58:32.080Z,87.50
2023-02-27T06:01:01.191Z,87.30
2023-02-27T06:03:32.882Z,87.70
2023-02-27T06:06:02.232Z,87.50
2023-02-27T06:08:30.614Z,87.70
2023-02-27T06:11:00.360Z,88.00
2023-02-27T06:13:28.738Z,88.60
2023-02-27T06:15:57.106Z,88.70
2023-02-27T06:18:25.505Z,88.70
2023-02-27T06:20:53.857Z,88.90
2023-02-27T06:23:22.187Z,88.60
2023-02-27T06:25:50.839Z,88.10
2023-02-27T06:28:20.568Z,88.20
2023-02-27T06:30:48.973Z,88.40
2023-02-27T06:33:17.361Z,88.40
2023-02-27T06:35:48.354Z,88.70
2023-02-27T06:38:16.786Z,90.00
2023-02-27T06:40:45.230Z,89.00
2023-02-27T06:43:14.736Z,88.60
2023-02-27T06:45:44.394Z,88.50
2023-02-27T06:48:14.778Z,88.50
2023-02-27T06:50:43.097Z,88.10
2023-02-27T06:53:11.487Z,88.60
2023-02-27T06:55:42.018Z,88.40
2023-02-27T06:58:10.845Z,88.40
2023-02-27T07:00:39.140Z,88.20
2023-02-27T07:03:08.829Z,88.20
2023-02-27T07:05:37.209Z,88.10
2023-02-27T07:08:07.995Z,88.30
2023-02-27T07:10:36.424Z,88.20
2023-02-27T07:13:07.211Z,88.40
2023-02-27T07:15:35.700Z,88.10
2023-02-27T07:18:04.127Z,88.40
2023-02-27T07:20:33.860Z,88.80
2023-02-27T07:23:02.815Z,89.10
2023-02-27T07:25:31.159Z,89.60
2023-02-27T07:27:59.451Z,90.00
2023-02-27T07:30:28.611Z,90.70
2023-02-27T07:32:56.986Z,93.00
2023-02-27T07:35:25.341Z,94.00
2023-02-27T07:37:55.026Z,93.80
2023-02-27T07:40:23.501Z,93.50
2023-02-27T07:42:53.229Z,93.40
2023-02-27T07:45:22.381Z,92.90
2023-02-27T07:47:50.791Z,92.70
2023-02-27T07:50:19.226Z,92.60
2023-02-27T07:52:47.647Z,92.40
2023-02-27T07:55:17.420Z,92.10
2023-02-27T07:57:45.880Z,92.00
2023-02-27T08:00:14.915Z,91.90
2023-02-27T08:02:43.328Z,92.00
2023-02-27T08:05:11.679Z,91.60
2023-02-27T08:07:40.048Z,91.70
2023-02-27T08:10:09.157Z,91.50
2023-02-27T08:12:39.321Z,91.40
2023-02-27T08:15:09.245Z,92.20
2023-02-27T08:17:37.700Z,91.30
2023-02-27T08:20:11.469Z,91.40
2023-02-27T08:22:39.812Z,90.90
2023-02-27T08:25:11.007Z,90.80
2023-02-27T08:27:43.347Z,90.60
2023-02-27T08:30:12.814Z,90.60
2023-02-27T08:32:41.325Z,90.50
2023-02-27T08:35:10.540Z,90.50
2023-02-27T08:37:38.932Z,90.20
2023-02-27T08:40:10.827Z,90.40
2023-02-27T08:42:40.503Z,89.50
2023-02-27T08:45:09.892Z,90.10
2023-02-27T08:47:38.309Z,90.00
2023-02-27T08:50:07.565Z,89.80
2023-02-27T08:52:37.862Z,90.20
2023-02-27T08:55:07.516Z,89.60
2023-02-27T08:57:35.942Z,89.20
2023-02-27T09:00:07.335Z,89.30
2023-02-27T09:02:35.769Z,89.40
2023-02-27T09:05:04.166Z,89.50
2023-02-27T09:07:34.412Z,88.80
2023-02-27T09:10:02.788Z,89.60
2023-02-27T09:12:31.104Z,88.60
2023-02-27T09:14:59.403Z,89.00
2023-02-27T09:17:29.129Z,88.70
2023-02-27T09:19:57.597Z,89.60
2023-02-27T09:22:25.997Z,89.50
2023-02-27T09:24:54.390Z,88.40
2023-02-27T09:27:25.942Z,89.20
2023-02-27T09:29:56.369Z,88.80
2023-02-27T09:32:24.864Z,90.00
2023-02-27T09:34:54.667Z,89.10
2023-02-27T09:37:25.087Z,88.90
2023-02-27T09:39:53.456Z,88.90
2023-02-27T09:42:24.080Z,88.90
2023-02-27T09:44:53.063Z,88.40
2023-02-27T09:47:24.858Z,88.40
2023-02-27T09:49:58.450Z,88.30
2023-02-27T09:52:26.896Z,88.50
2023-02-27T09:54:55.312Z,88.70
2023-02-27T09:57:29.181Z,87.80
2023-02-27T10:00:04.181Z,89.20
2023-02-27T10:02:39.700Z,88.00
2023-02-27T10:05:13.502Z,89.80
2023-02-27T10:07:42.850Z,89.50
2023-02-27T10:10:22.472Z,89.00
2023-02-27T10:13:04.867Z,88.60
2023-02-27T10:15:34.801Z,88.40
2023-02-27T10:18:20.140Z,88.60
2023-02-27T10:20:55.865Z,88.00
2023-02-27T10:23:27.389Z,89.30
2023-02-27T10:25:55.840Z,88.60
2023-02-27T10:28:24.225Z,89.20
2023-02-27T10:30:53.459Z,88.40
2023-02-27T10:33:27.369Z,88.00
2023-02-27T10:35:58.036Z,88.20
2023-02-27T10:38:32.658Z,87.90
2023-02-27T10:41:08.243Z,87.70
2023-02-27T10:43:36.579Z,87.60
2023-02-27T10:46:07.728Z,88.00
2023-02-27T10:48:36.044Z,88.20
2023-02-27T10:51:31.547Z,88.00
2023-02-27T10:54:17.061Z,86.90
2023-02-27T10:56:46.158Z,87.20
2023-02-27T10:59:19.325Z,87.90
2023-02-27T11:01:48.626Z,86.80
2023-02-27T11:04:25.172Z,87.70
2023-02-27T11:06:55.036Z,87.60
2023-02-27T11:09:24.785Z,87.10
2023-02-27T11:11:53.223Z,87.40
2023-02-27T11:14:27.872Z,86.80
2023-02-27T11:16:56.767Z,86.10
2023-02-27T11:19:26.754Z,86.10
2023-02-27T11:22:03.816Z,86.30
2023-02-27T11:24:32.280Z,84.90
2023-02-27T11:27:03.540Z,85.70
2023-02-27T11:29:31.869Z,86.30
2023-02-27T11:32:01.270Z,84.50
2023-02-27T11:34:31.330Z,84.90
2023-02-27T11:37:02.910Z,84.40
2023-02-27T11:39:35.900Z,84.80
2023-02-27T11:42:18.551Z,84.50
2023-02-27T11:44:52.103Z,84.30
2023-02-27T11:47:28.003Z,84.30
2023-02-27T11:50:21.337Z,84.90
2023-02-27T11:53:00.251Z,84.90
2023-02-27T11:55:29.191Z,83.60
2023-02-27T11:58:00.844Z,84.20
2023-02-27T12:00:33.844Z,83.20
2023-02-27T12:03:05.105Z,83.80
2023-02-27T12:05:35.738Z,83.70
2023-02-27T12:08:08.965Z,83.70
2023-02-27T12:10:40.744Z,83.10
2023-02-27T12:13:13.822Z,83.10
2023-02-27T12:15:45.596Z,83.60
2023-02-27T12:18:17.310Z,84.10
2023-02-27T12:20:50.409Z,83.90
2023-02-27T12:23:22.487Z,83.10
2023-02-27T12:25:53.499Z,82.70
2023-02-27T12:28:33.121Z,83.00
2023-02-27T12:31:32.325Z,83.30
2023-02-27T12:34:03.563Z,82.10
2023-02-27T12:36:31.958Z,82.40
2023-02-27T12:39:03.916Z,82.80
2023-02-27T12:41:38.943Z,82.40
2023-02-27T12:44:19.680Z,82.30
2023-02-27T12:46:49.596Z,82.40
2023-02-27T12:49:23.251Z,82.40
2023-02-27T12:51:55.430Z,82.50
2023-02-27T12:54:45.733Z,82.10
2023-02-27T12:57:33.508Z,82.50
2023-02-27T13:00:14.826Z,81.90
2023-02-27T13:02:58.550Z,82.70
2023-02-27T13:05:36.882Z,82.10
2023-02-27T13:08:10.517Z,82.30
2023-02-27T13:10:43.964Z,81.30
2023-02-27T13:13:17.359Z,82.80
2023-02-27T13:15:48.576Z,82.10
2023-02-27T13:18:27.508Z,82.90
2023-02-27T13:20:57.966Z,81.80
2023-02-27T13:23:29.172Z,81.90
2023-02-27T13:25:58.884Z,81.40
2023-02-27T13:28:28.239Z,81.00
2023-02-27T13:31:01.939Z,81.50
2023-02-27T13:33:32.419Z,82.20
2023-02-27T13:36:06.179Z,82.40
2023-02-27T13:38:42.447Z,82.20
2023-02-27T13:41:42.112Z,81.60
2023-02-27T13:44:53.030Z,82.40
2023-02-27T13:47:48.708Z,82.90
2023-02-27T13:50:51.487Z,83.40
2023-02-27T13:53:20.861Z,83.30
2023-02-27T13:55:49.402Z,83.00
2023-02-27T13:58:21.742Z,83.40
2023-02-27T14:01:01.007Z,82.80
2023-02-27T14:03:31.991Z,82.10
2023-02-27T14:06:03.830Z,83.00
2023-02-27T14:08:34.234Z,83.00
2023-02-27T14:11:16.028Z,82.90
2023-02-27T14:14:10.989Z,81.80
2023-02-27T14:16:59.017Z,82.70
2023-02-27T14:19:50.368Z,83.30
2023-02-27T14:22:38.975Z,82.90
2023-02-27T14:25:22.506Z,83.00
2023-02-27T14:27:55.889Z,82.70
2023-02-27T14:30:33.020Z,82.40
2023-02-27T14:33:06.050Z,82.40
2023-02-27T14:35:36.142Z,82.30
2023-02-27T14:38:09.249Z,82.40
2023-02-27T14:40:40.232Z,81.90
2023-02-27T14:43:14.435Z,81.00
2023-02-27T14:45:44.114Z,81.40
2023-02-27T14:48:12.472Z,80.80
2023-02-27T14:50:41.726Z,81.20
2023-02-27T14:53:23.428Z,81.20
2023-02-27T14:55:55.198Z,82.30
2023-02-27T14:58:23.655Z,82.90
2023-02-27T15:01:04.474Z,82.20
2023-02-27T15:03:41.858Z,81.90
2023-02-27T15:06:18.536Z,81.90
2023-02-27T15:08:49.019Z,81.90
2023-02-27T15:11:18.464Z,82.70
2023-02-27T15:13:46.839Z,83.20
2023-02-27T15:16:38.344Z,83.20
2023-02-27T15:19:17.694Z,82.40
2023-02-27T15:21:47.274Z,81.80
2023-02-27T15:24:26.569Z,81.90
2023-02-27T15:26:56.564Z,82.50
2023-02-27T15:29:26.228Z,82.10
2023-02-27T15:31:55.968Z,82.50
2023-02-27T15:34:25.620Z,82.90
2023-02-27T15:36:55.735Z,82.70
2023-02-27T15:39:24.587Z,82.10
2023-02-27T15:41:53.813Z,82.90
2023-02-27T15:44:24.721Z,82.90
2023-02-27T15:46:53.152Z,82.50
2023-02-27T15:49:23.599Z,83.30
2023-02-27T15:51:58.385Z,83.00
2023-02-27T15:54:26.749Z,83.10
2023-02-27T15:56:55.057Z,83.80
2023-02-27T15:59:23.431Z,83.20
2023-02-27T16:01:51.734Z,83.00
2023-02-27T16:04:24.671Z,82.90
2023-02-27T16:06:58.236Z,82.70
2023-02-27T16:09:28.590Z,82.70
2023-02-27T16:12:30.545Z,82.20
2023-02-27T16:15:23.880Z,82.70
2023-02-27T16:18:00.330Z,83.10
2023-02-27T16:20:38.536Z,82.60
2023-02-27T16:23:08.502Z,82.40
2023-02-27T16:25:37.113Z,83.60
2023-02-27T16:28:11.944Z,82.80
2023-02-27T16:30:40.747Z,83.40
2023-02-27T16:33:15.872Z,83.00
2023-02-27T16:35:45.594Z,83.20
2023-02-27T16:38:13.906Z,82.90
2023-02-27T16:40:42.278Z,83.20
2023-02-27T16:43:10.723Z,83.30
2023-02-27T16:45:39.072Z,83.60
2023-02-27T16:48:07.755Z,83.30
2023-02-27T16:50:39.049Z,83.20
2023-02-27T16:53:09.226Z,83.40
2023-02-27T16:55:39.146Z,83.80
2023-02-27T16:58:10.190Z,83.40
2023-02-27T17:00:38.542Z,83.70
2023-02-27T17:03:07.390Z,83.70
2023-02-27T17:05:35.792Z,83.50
2023-02-27T17:08:04.191Z,83.80
2023-02-27T17:10:34.790Z,83.60
2023-02-27T17:13:03.212Z,84.30
2023-02-27T17:15:31.569Z,84.20
2023-02-27T17:17:59.919Z,84.30
2023-02-27T17:20:30.058Z,84.40
2023-02-27T17:22:58.533Z,84.60
2023-02-27T17:25:27.832Z,84.70
2023-02-27T17:27:57.531Z,84.80
2023-02-27T17:30:26.057Z,85.10
2023-02-27T17:32:54.450Z,84.90
2023-02-27T17:35:22.908Z,85.10
2023-02-27T17:37:51.384Z,85.70
2023-02-27T17:40:19.967Z,85.20
2023-02-27T17:42:49.511Z,85.30
2023-02-27T17:45:20.972Z,85.60
2023-02-27T17:47:50.054Z,85.20
2023-02-27T17:50:18.535Z,85.70
2023-02-27T17:52:46.914Z,86.00
2023-02-27T17:55:16.610Z,85.80
2023-02-27T17:57:44.989Z,85.60
2023-02-27T18:00:15.454Z,85.50
2023-02-27T18:02:45.973Z,85.80
2023-02-27T18:05:14.345Z,85.60
2023-02-27T18:07:42.761Z,85.70
2023-02-27T18:10:13.980Z,85.80
2023-02-27T18:12:42.347Z,85.80
2023-02-27T18:15:11.436Z,86.20
2023-02-27T18:17:39.740Z,85.80
2023-02-27T18:20:11.273Z,85.80
2023-02-27T18:22:39.628Z,86.30
2023-02-27T18:25:08.784Z,86.10
2023-02-27T18:27:37.182Z,85.80
2023-02-27T18:30:06.400Z,85.90
2023-02-27T18:32:34.723Z,85.90
2023-02-27T18:35:03.137Z,85.60
2023-02-27T18:37:33.027Z,85.70
2023-02-27T18:40:01.470Z,86.10
2023-02-27T18:42:29.813Z,86.10
2023-02-27T18:44:58.480Z,85.90
2023-02-27T18:47:30.300Z,86.00
2023-02-27T18:49:58.852Z,86.20
2023-02-27T18:52:28.719Z,86.40
2023-02-27T18:54:58.503Z,86.40
2023-02-27T18:57:26.881Z,86.20
2023-02-27T18:59:55.322Z,86.40
2023-02-27T19:02:23.766Z,86.30
2023-02-27T19:04:54.922Z,86.30
2023-02-27T19:07:23.704Z,86.70
2023-02-27T19:09:52.074Z,86.40
2023-02-27T19:12:21.741Z,86.50
2023-02-27T19:14:50.512Z,86.90
2023-02-27T19:17:18.886Z,86.60
2023-02-27T19:19:49.392Z,86.50
2023-02-27T19:22:17.698Z,86.60
2023-02-27T19:24:47.013Z,86.20
2023-02-27T19:27:17.104Z,86.60
2023-02-27T19:29:46.832Z,86.80
2023-02-27T19:32:15.618Z,86.20
2023-02-27T19:34:44.119Z,86.40
2023-02-27T19:37:12.448Z,86.50
2023-02-27T19:39:41.023Z,86.60
2023-02-27T19:42:09.430Z,86.60
2023-02-27T19:44:38.089Z,86.80
2023-02-27T19:47:08.008Z,86.10
2023-02-27T19:49:36.366Z,86.30
2023-02-27T19:52:04.892Z,86.20
2023-02-27T19:54:33.200Z,86.10
2023-02-27T19:57:04.234Z,86.10
2023-02-27T19:59:32.535Z,86.40
2023-02-27T20:02:01.280Z,86.20
2023-02-27T20:04:31.012Z,86.50
2023-02-27T20:06:59.444Z,86.50
2023-02-27T20:09:27.844Z,86.50
2023-02-27T20:11:59.016Z,86.40
2023-02-27T20:14:27.382Z,86.60
2023-02-27T20:16:55.781Z,86.60
2023-02-27T20:19:24.519Z,86.70
2023-02-27T20:21:55.389Z,86.60
2023-02-27T20:24:24.479Z,86.50
2023-02-27T20:26:53.431Z,87.40
2023-02-27T20:29:22.881Z,86.30
2023-02-27T20:31:52.675Z,86.20
2023-02-27T20:34:24.715Z,86.80
2023-02-27T20:36:55.303Z,86.60
2023-02-27T20:39:23.676Z,86.60
2023-02-27T20:41:52.082Z,86.10
2023-02-27T20:44:20.455Z,86.60
2023-02-27T20:46:49.588Z,86.10
2023-02-27T20:49:18.343Z,86.40
2023-02-27T20:51:46.862Z,86.00
2023-02-27T20:54:20.138Z,85.80
2023-02-27T20:56:51.735Z,85.80
2023-02-27T20:59:20.380Z,86.30
2023-02-27T21:01:52.296Z,86.00
2023-02-27T21:04:26.346Z,86.20
2023-02-27T21:06:55.744Z,86.20
2023-02-27T21:09:25.519Z,86.50
2023-02-27T21:11:53.829Z,86.40
2023-02-27T21:14:24.467Z,86.50
2023-02-27T21:16:54.022Z,86.50
2023-02-27T21:19:25.120Z,86.40
2023-02-27T21:21:53.461Z,86.60
2023-02-27T21:24:26.169Z,86.50
2023-02-27T21:26:54.626Z,86.60
2023-02-27T21:29:23.077Z,86.60
2023-02-27T21:31:51.575Z,87.00
2023-02-27T21:34:20.927Z,87.70
2023-02-27T21:36:49.380Z,88.20
2023-02-27T21:39:19.016Z,88.00
2023-02-27T21:41:49.224Z,88.00
2023-02-27T21:44:20.650Z,87.80
2023-02-27T21:46:49.118Z,87.90
2023-02-27T21:49:17.894Z,87.80
2023-02-27T21:51:46.730Z,87.80
2023-02-27T21:54:15.626Z,87.90
2023-02-27T21:56:44.129Z,87.70
2023-02-27T21:59:15.892Z,87.80
2023-02-27T22:01:47.185Z,87.70
2023-02-27T22:04:15.917Z,88.00
2023-02-27T22:06:44.310Z,87.60
2023-02-27T22:09:12.677Z,87.90
2023-02-27T22:11:41.079Z,87.60
2023-02-27T22:14:09.694Z,87.40
2023-02-27T22:16:39.581Z,87.70
2023-02-27T22:19:08.098Z,87.50
2023-02-27T22:21:36.858Z,87.50
2023-02-27T22:24:05.515Z,87.70
2023-02-27T22:26:33.891Z,87.70
2023-02-27T22:29:04.756Z,87.80
2023-02-27T22:31:34.085Z,87.90
2023-02-27T22:34:04.992Z,87.80
2023-02-27T22:36:33.462Z,87.70
2023-02-27T22:39:02.023Z,87.60
2023-02-27T22:41:31.650Z,87.80
2023-02-27T22:44:00.615Z,87.70
2023-02-27T22:46:31.575Z,88.00
2023-02-27T22:49:01.062Z,87.70
2023-02-27T22:51:31.165Z,87.90
2023-02-27T22:54:00.571Z,88.00
2023-02-27T22:56:29.099Z,88.00
2023-02-27T22:58:57.514Z,88.00
2023-02-27T23:01:26.897Z,87.90
2023-02-27T23:03:57.387Z,88.00
2023-02-27T23:06:27.767Z,88.00
2023-02-27T23:08:57.521Z,88.10
2023-02-27T23:11:25.928Z,88.10
2023-02-27T23:13:54.315Z,88.00
2023-02-27T23:16:22.733Z,88.10
2023-02-27T23:18:52.517Z,88.00
2023-02-27T23:21:23.913Z,88.40
2023-02-27T23:23:53.717Z,88.10
2023-02-27T23:26:23.563Z,88.20
2023-02-27T23:28:51.922Z,88.90
2023-02-27T23:31:22.756Z,88.20
2023-02-27T23:33:51.120Z,88.30
2023-02-27T23:36:29.642Z,88.40
2023-02-27T23:38:59.332Z,88.30
2023-02-27T23:41:29.485Z,88.40
2023-02-27T23:44:15.755Z,88.40
2023-02-27T23:46:44.098Z,88.30
2023-02-27T23:49:12.630Z,88.40
2023-02-27T23:51:41.028Z,88.50
2023-02-27T23:54:10.431Z,89.30
2023-02-27T23:56:40.153Z,88.50
2023-02-27T23:59:08.466Z,88.30
